sensor_id;sensor_type;location;lat;lon;timestamp;pressure;altitude;pressure_sealevel;temperature;humidity
29247;BME280;16272;48.188;9.964;2023-02-22T00:00:17;95731.00;;;0.94;77.45
29247;BME280;16272;48.188;9.964;2023-02-22T00:03:03;95722.88;;;0.70;77.99
29247;BME280;16272;48.188;9.964;2023-02-22T00:05:28;95728.09;;;0.99;77.21
29247;BME280;16272;48.188;9.964;2023-02-22T00:07:55;95728.81;;;1.15;77.12
29247;BME280;16272;48.188;9.964;2023-02-22T00:10:22;95722.06;;;1.25;76.13
29247;BME280;16272;48.188;9.964;2023-02-22T00:12:50;95721.91;;;1.14;76.51
29247;BME280;16272;48.188;9.964;2023-02-22T00:15:17;95727.16;;;0.71;78.63
29247;BME280;16272;48.188;9.964;2023-02-22T00:17:43;95733.16;;;0.87;78.07
29247;BME280;16272;48.188;9.964;2023-02-22T00:20:09;95730.16;;;0.79;78.20
29247;BME280;16272;48.188;9.964;2023-02-22T00:22:42;95725.75;;;0.80;77.81
29247;BME280;16272;48.188;9.964;2023-02-22T00:25:08;95716.91;;;0.68;78.50
29247;BME280;16272;48.188;9.964;2023-02-22T00:27:34;95716.63;;;0.72;78.65
29247;BME280;16272;48.188;9.964;2023-02-22T00:29:59;95722.13;;;0.68;78.61
29247;BME280;16272;48.188;9.964;2023-02-22T00:32:25;95722.13;;;0.82;79.01
29247;BME280;16272;48.188;9.964;2023-02-22T00:34:52;95717.63;;;0.99;77.95
29247;BME280;16272;48.188;9.964;2023-02-22T00:37:17;95722.19;;;1.09;77.35
29247;BME280;16272;48.188;9.964;2023-02-22T00:39:46;95725.47;;;0.99;77.73
29247;BME280;16272;48.188;9.964;2023-02-22T00:42:12;95728.94;;;0.99;78.73
29247;BME280;16272;48.188;9.964;2023-02-22T00:44:37;95723.88;;;1.10;77.68
29247;BME280;16272;48.188;9.964;2023-02-22T00:47:03;95729.22;;;0.66;78.15
29247;BME280;16272;48.188;9.964;2023-02-22T00:49:29;95726.53;;;0.67;80.05
29247;BME280;16272;48.188;9.964;2023-02-22T00:51:54;95713.53;;;0.66;79.11
29247;BME280;16272;48.188;9.964;2023-02-22T00:54:19;95716.16;;;0.51;79.58
29247;BME280;16272;48.188;9.964;2023-02-22T00:56:44;95722.66;;;0.44;79.62
29247;BME280;16272;48.188;9.964;2023-02-22T00:59:10;95709.53;;;0.89;77.56
29247;BME280;16272;48.188;9.964;2023-02-22T01:01:35;95718.41;;;0.58;78.44
29247;BME280;16272;48.188;9.964;2023-02-22T01:04:00;95718.25;;;0.30;80.35
29247;BME280;16272;48.188;9.964;2023-02-22T01:06:26;95712.31;;;0.43;80.85
29247;BME280;16272;48.188;9.964;2023-02-22T01:08:51;95714.00;;;0.72;79.75
29247;BME280;16272;48.188;9.964;2023-02-22T01:11:17;95696.03;;;0.95;78.20
29247;BME280;16272;48.188;9.964;2023-02-22T01:13:42;95704.47;;;1.42;75.73
29247;BME280;16272;48.188;9.964;2023-02-22T01:16:10;95699.59;;;1.08;77.54
29247;BME280;16272;48.188;9.964;2023-02-22T01:18:36;95703.78;;;1.53;74.56
29247;BME280;16272;48.188;9.964;2023-02-22T01:21:05;95697.94;;;1.62;73.48
29247;BME280;16272;48.188;9.964;2023-02-22T01:23:30;95706.34;;;1.40;72.91
29247;BME280;16272;48.188;9.964;2023-02-22T01:25:56;95700.66;;;0.48;77.61
29247;BME280;16272;48.188;9.964;2023-02-22T01:28:22;95702.97;;;0.96;76.13
29247;BME280;16272;48.188;9.964;2023-02-22T01:30:48;95700.63;;;1.06;77.12
29247;BME280;16272;48.188;9.964;2023-02-22T01:33:14;95696.81;;;0.83;77.47
29247;BME280;16272;48.188;9.964;2023-02-22T01:35:41;95696.81;;;0.25;79.92
29247;BME280;16272;48.188;9.964;2023-02-22T01:38:08;95696.72;;;0.55;78.73
29247;BME280;16272;48.188;9.964;2023-02-22T01:40:36;95700.09;;;0.43;78.37
29247;BME280;16272;48.188;9.964;2023-02-22T01:43:16;95699.34;;;0.55;78.13
29247;BME280;16272;48.188;9.964;2023-02-22T01:48:24;95697.00;;;0.36;77.79
29247;BME280;16272;48.188;9.964;2023-02-22T01:50:58;95698.28;;;-0.15;80.09
29247;BME280;16272;48.188;9.964;2023-02-22T01:53:34;95694.03;;;-0.02;79.55
29247;BME280;16272;48.188;9.964;2023-02-22T01:56:01;95700.38;;;-0.06;81.27
29247;BME280;16272;48.188;9.964;2023-02-22T01:58:29;95694.97;;;0.42;78.44
29247;BME280;16272;48.188;9.964;2023-02-22T02:00:56;95691.69;;;0.52;77.42
29247;BME280;16272;48.188;9.964;2023-02-22T02:03:25;95686.91;;;0.16;78.79
29247;BME280;16272;48.188;9.964;2023-02-22T02:05:56;95683.25;;;0.04;79.30
29247;BME280;16272;48.188;9.964;2023-02-22T02:10:57;95676.81;;;0.10;80.14
29247;BME280;16272;48.188;9.964;2023-02-22T02:13:25;95671.06;;;0.33;79.23
29247;BME280;16272;48.188;9.964;2023-02-22T02:15:53;95672.47;;;0.53;78.99
29247;BME280;16272;48.188;9.964;2023-02-22T02:18:19;95666.56;;;0.79;78.53
29247;BME280;16272;48.188;9.964;2023-02-22T02:32:21;95658.69;;;-0.38;81.95
29247;BME280;16272;48.188;9.964;2023-02-22T02:35:03;95655.69;;;-0.46;81.91
29247;BME280;16272;48.188;9.964;2023-02-22T02:40:33;95645.16;;;-0.14;80.81
29247;BME280;16272;48.188;9.964;2023-02-22T02:43:08;95638.47;;;-0.34;82.03
29247;BME280;16272;48.188;9.964;2023-02-22T02:48:11;95636.03;;;-0.52;82.13
29247;BME280;16272;48.188;9.964;2023-02-22T02:50:43;95637.13;;;-0.26;81.60
29247;BME280;16272;48.188;9.964;2023-02-22T02:53:11;95639.09;;;-0.76;83.68
29247;BME280;16272;48.188;9.964;2023-02-22T02:55:38;95639.88;;;-0.59;83.31
29247;BME280;16272;48.188;9.964;2023-02-22T02:58:05;95638.56;;;-0.66;84.18
29247;BME280;16272;48.188;9.964;2023-02-22T03:00:36;95633.31;;;-0.50;83.59
29247;BME280;16272;48.188;9.964;2023-02-22T03:03:41;95630.09;;;-0.70;84.51
29247;BME280;16272;48.188;9.964;2023-02-22T03:06:15;95633.84;;;-0.60;83.32
29247;BME280;16272;48.188;9.964;2023-02-22T03:08:56;95627.50;;;-0.25;81.84
29247;BME280;16272;48.188;9.964;2023-02-22T03:11:36;95629.22;;;-0.24;81.97
29247;BME280;16272;48.188;9.964;2023-02-22T03:14:24;95621.41;;;-0.10;81.74
29247;BME280;16272;48.188;9.964;2023-02-22T03:17:03;95618.63;;;0.51;76.98
29247;BME280;16272;48.188;9.964;2023-02-22T03:19:31;95615.25;;;0.63;75.99
29247;BME280;16272;48.188;9.964;2023-02-22T03:24:58;95619.03;;;-0.29;79.75
29247;BME280;16272;48.188;9.964;2023-02-22T03:27:46;95628.56;;;-0.13;80.71
29247;BME280;16272;48.188;9.964;2023-02-22T03:30:25;95619.25;;;0.11;79.96
29247;BME280;16272;48.188;9.964;2023-02-22T03:32:55;95610.22;;;0.17;79.02
29247;BME280;16272;48.188;9.964;2023-02-22T03:35:24;95617.22;;;0.45;77.58
29247;BME280;16272;48.188;9.964;2023-02-22T03:37:57;95619.38;;;-0.05;78.80
29247;BME280;16272;48.188;9.964;2023-02-22T03:40:31;95621.00;;;-0.32;79.87
29247;BME280;16272;48.188;9.964;2023-02-22T03:43:01;95623.03;;;-0.38;79.15
29247;BME280;16272;48.188;9.964;2023-02-22T03:45:28;95621.84;;;-0.48;81.35
29247;BME280;16272;48.188;9.964;2023-02-22T03:50:43;95620.63;;;-0.57;81.27
29247;BME280;16272;48.188;9.964;2023-02-22T03:53:08;95620.06;;;-0.62;81.85
29247;BME280;16272;48.188;9.964;2023-02-22T03:55:34;95617.38;;;-0.60;80.91
29247;BME280;16272;48.188;9.964;2023-02-22T03:58:04;95614.84;;;-0.62;81.81
29247;BME280;16272;48.188;9.964;2023-02-22T04:00:32;95617.34;;;-0.44;80.41
29247;BME280;16272;48.188;9.964;2023-02-22T04:02:58;95618.13;;;-0.28;78.60
29247;BME280;16272;48.188;9.964;2023-02-22T04:05:24;95628.75;;;-0.77;81.69
29247;BME280;16272;48.188;9.964;2023-02-22T04:07:51;95625.44;;;-0.65;81.44
29247;BME280;16272;48.188;9.964;2023-02-22T04:10:17;95630.31;;;-0.59;81.95
29247;BME280;16272;48.188;9.964;2023-02-22T04:12:43;95625.44;;;-0.65;80.48
29247;BME280;16272;48.188;9.964;2023-02-22T04:15:12;95626.75;;;-0.58;80.35
29247;BME280;16272;48.188;9.964;2023-02-22T04:17:37;95619.31;;;-0.64;81.42
29247;BME280;16272;48.188;9.964;2023-02-22T04:20:03;95620.66;;;-0.72;81.06
29247;BME280;16272;48.188;9.964;2023-02-22T04:22:29;95619.03;;;-0.59;80.21
29247;BME280;16272;48.188;9.964;2023-02-22T04:24:54;95621.78;;;-0.77;81.23
29247;BME280;16272;48.188;9.964;2023-02-22T04:27:21;95611.91;;;-0.41;79.64
29247;BME280;16272;48.188;9.964;2023-02-22T04:29:47;95610.25;;;-0.42;78.92
29247;BME280;16272;48.188;9.964;2023-02-22T04:32:12;95616.38;;;-0.43;79.51
29247;BME280;16272;48.188;9.964;2023-02-22T04:34:37;95612.81;;;-0.57;79.12
29247;BME280;16272;48.188;9.964;2023-02-22T04:37:03;95614.72;;;-0.90;81.00
29247;BME280;16272;48.188;9.964;2023-02-22T04:39:28;95608.56;;;-0.43;78.36
29247;BME280;16272;48.188;9.964;2023-02-22T04:41:53;95614.28;;;-0.67;79.11
29247;BME280;16272;48.188;9.964;2023-02-22T04:44:19;95609.56;;;-0.76;79.75
29247;BME280;16272;48.188;9.964;2023-02-22T04:46:44;95613.59;;;-0.40;79.20
29247;BME280;16272;48.188;9.964;2023-02-22T04:49:10;95606.56;;;-0.09;76.79
29247;BME280;16272;48.188;9.964;2023-02-22T04:51:36;95605.06;;;-0.13;77.84
29247;BME280;16272;48.188;9.964;2023-02-22T04:54:01;95602.56;;;-0.01;78.52
29247;BME280;16272;48.188;9.964;2023-02-22T04:56:27;95599.63;;;-0.25;79.00
29247;BME280;16272;48.188;9.964;2023-02-22T04:58:52;95603.88;;;-0.52;79.16
29247;BME280;16272;48.188;9.964;2023-02-22T05:01:17;95592.50;;;-0.51;78.24
29247;BME280;16272;48.188;9.964;2023-02-22T05:03:43;95595.34;;;-0.40;77.82
29247;BME280;16272;48.188;9.964;2023-02-22T05:06:08;95595.34;;;-0.40;77.36
29247;BME280;16272;48.188;9.964;2023-02-22T05:08:36;95592.91;;;-0.43;76.54
29247;BME280;16272;48.188;9.964;2023-02-22T05:11:01;95594.41;;;-1.00;78.50
29247;BME280;16272;48.188;9.964;2023-02-22T05:13:27;95600.44;;;-0.83;79.07
29247;BME280;16272;48.188;9.964;2023-02-22T05:15:52;95594.81;;;-0.61;78.71
29247;BME280;16272;48.188;9.964;2023-02-22T05:18:18;95595.41;;;-1.02;80.87
29247;BME280;16272;48.188;9.964;2023-02-22T05:20:43;95587.66;;;-1.04;80.26
29247;BME280;16272;48.188;9.964;2023-02-22T05:23:09;95592.06;;;-1.20;80.83
29247;BME280;16272;48.188;9.964;2023-02-22T05:25:34;95582.38;;;-1.18;80.03
29247;BME280;16272;48.188;9.964;2023-02-22T05:28:02;95582.25;;;-0.85;79.83
29247;BME280;16272;48.188;9.964;2023-02-22T05:30:30;95580.69;;;-0.57;78.47
29247;BME280;16272;48.188;9.964;2023-02-22T05:32:56;95582.41;;;-0.72;78.68
29247;BME280;16272;48.188;9.964;2023-02-22T05:35:23;95584.84;;;-0.54;78.66
29247;BME280;16272;48.188;9.964;2023-02-22T05:37:48;95579.22;;;-0.32;74.70
29247;BME280;16272;48.188;9.964;2023-02-22T05:40:18;95582.09;;;-0.37;76.02
29247;BME280;16272;48.188;9.964;2023-02-22T05:42:43;95589.53;;;-0.45;76.59
29247;BME280;16272;48.188;9.964;2023-02-22T05:45:12;95583.84;;;-0.52;76.52
29247;BME280;16272;48.188;9.964;2023-02-22T05:47:38;95592.91;;;-0.73;76.32
29247;BME280;16272;48.188;9.964;2023-02-22T05:50:04;95591.72;;;-0.38;75.13
29247;BME280;16272;48.188;9.964;2023-02-22T05:52:29;95587.84;;;-0.46;77.54
29247;BME280;16272;48.188;9.964;2023-02-22T05:54:59;95591.53;;;-0.65;77.63
29247;BME280;16272;48.188;9.964;2023-02-22T05:57:27;95596.47;;;-0.90;77.55
29247;BME280;16272;48.188;9.964;2023-02-22T05:59:53;95589.63;;;-0.77;77.21
29247;BME280;16272;48.188;9.964;2023-02-22T06:02:19;95585.38;;;-0.94;79.21
29247;BME280;16272;48.188;9.964;2023-02-22T06:04:45;95592.34;;;-0.79;76.74
29247;BME280;16272;48.188;9.964;2023-02-22T06:07:11;95585.38;;;-1.10;79.67
29247;BME280;16272;48.188;9.964;2023-02-22T06:09:36;95592.22;;;-1.23;80.30
29247;BME280;16272;48.188;9.964;2023-02-22T06:12:02;95590.16;;;-0.86;78.42
29247;BME280;16272;48.188;9.964;2023-02-22T06:14:27;95587.41;;;-0.69;77.05
29247;BME280;16272;48.188;9.964;2023-02-22T06:16:54;95593.53;;;-0.84;77.33
29247;BME280;16272;48.188;9.964;2023-02-22T06:19:20;95600.44;;;-0.83;77.67
29247;BME280;16272;48.188;9.964;2023-02-22T06:21:53;95597.59;;;-0.95;77.12
29247;BME280;16272;48.188;9.964;2023-02-22T06:24:19;95597.25;;;-1.20;78.93
29247;BME280;16272;48.188;9.964;2023-02-22T06:26:55;95600.44;;;-1.15;78.47
29247;BME280;16272;48.188;9.964;2023-02-22T06:29:22;95603.72;;;-0.96;77.86
29247;BME280;16272;48.188;9.964;2023-02-22T06:31:48;95601.66;;;-1.05;78.33
29247;BME280;16272;48.188;9.964;2023-02-22T06:34:13;95600.81;;;-0.75;76.98
29247;BME280;16272;48.188;9.964;2023-02-22T06:36:38;95601.16;;;-0.81;77.79
29247;BME280;16272;48.188;9.964;2023-02-22T06:39:04;95604.28;;;-0.90;78.67
29247;BME280;16272;48.188;9.964;2023-02-22T06:41:29;95602.94;;;-0.51;78.23
29247;BME280;16272;48.188;9.964;2023-02-22T06:43:54;95604.53;;;-0.04;76.56
29247;BME280;16272;48.188;9.964;2023-02-22T06:46:20;95611.19;;;-0.29;76.20
29247;BME280;16272;48.188;9.964;2023-02-22T06:48:46;95616.34;;;-0.58;78.41
29247;BME280;16272;48.188;9.964;2023-02-22T06:51:12;95614.38;;;-0.24;77.67
29247;BME280;16272;48.188;9.964;2023-02-22T06:53:37;95606.44;;;-0.37;78.19
29247;BME280;16272;48.188;9.964;2023-02-22T06:56:03;95605.31;;;-0.32;78.63
29247;BME280;16272;48.188;9.964;2023-02-22T06:58:28;95613.41;;;-0.37;80.05
29247;BME280;16272;48.188;9.964;2023-02-22T07:00:54;95614.72;;;-0.30;81.21
29247;BME280;16272;48.188;9.964;2023-02-22T07:03:19;95614.31;;;-0.52;81.09
29247;BME280;16272;48.188;9.964;2023-02-22T07:05:45;95613.84;;;0.14;80.43
29247;BME280;16272;48.188;9.964;2023-02-22T07:08:11;95611.00;;;-0.40;81.83
29247;BME280;16272;48.188;9.964;2023-02-22T07:10:37;95603.69;;;0.24;81.45
29247;BME280;16272;48.188;9.964;2023-02-22T07:13:05;95608.06;;;0.52;80.79
29247;BME280;16272;48.188;9.964;2023-02-22T07:15:32;95603.78;;;0.66;81.67
29247;BME280;16272;48.188;9.964;2023-02-22T07:17:58;95614.41;;;0.63;80.33
29247;BME280;16272;48.188;9.964;2023-02-22T07:20:24;95611.38;;;0.83;79.77
29247;BME280;16272;48.188;9.964;2023-02-22T07:22:50;95606.91;;;0.85;80.83
29247;BME280;16272;48.188;9.964;2023-02-22T07:25:26;95617.41;;;1.25;80.52
29247;BME280;16272;48.188;9.964;2023-02-22T07:27:52;95613.91;;;1.12;80.67
29247;BME280;16272;48.188;9.964;2023-02-22T07:30:23;95611.41;;;1.38;79.42
29247;BME280;16272;48.188;9.964;2023-02-22T07:32:52;95600.16;;;1.63;78.63
29247;BME280;16272;48.188;9.964;2023-02-22T07:35:45;95602.66;;;1.24;79.23
29247;BME280;16272;48.188;9.964;2023-02-22T07:38:12;95595.31;;;0.89;80.48
29247;BME280;16272;48.188;9.964;2023-02-22T07:40:37;95598.38;;;1.23;79.47
29247;BME280;16272;48.188;9.964;2023-02-22T07:43:04;95599.34;;;1.88;76.82
29247;BME280;16272;48.188;9.964;2023-02-22T07:45:34;95595.59;;;1.92;76.13
29247;BME280;16272;48.188;9.964;2023-02-22T07:48:01;95597.13;;;1.69;77.43
29247;BME280;16272;48.188;9.964;2023-02-22T07:50:28;95592.72;;;2.34;75.43
29247;BME280;16272;48.188;9.964;2023-02-22T07:52:56;95599.34;;;1.88;75.74
29247;BME280;16272;48.188;9.964;2023-02-22T07:55:26;95597.84;;;3.22;73.79
29247;BME280;16272;48.188;9.964;2023-02-22T07:57:55;95591.16;;;2.94;73.42
29247;BME280;16272;48.188;9.964;2023-02-22T08:00:36;95585.00;;;3.55;71.99
29247;BME280;16272;48.188;9.964;2023-02-22T08:03:06;95595.53;;;2.69;74.23
29247;BME280;16272;48.188;9.964;2023-02-22T08:05:34;95587.97;;;3.26;74.30
29247;BME280;16272;48.188;9.964;2023-02-22T08:08:00;95594.38;;;3.81;72.06
29247;BME280;16272;48.188;9.964;2023-02-22T08:10:26;95592.03;;;3.54;72.69
29247;BME280;16272;48.188;9.964;2023-02-22T08:13:01;95592.31;;;3.74;71.02
29247;BME280;16272;48.188;9.964;2023-02-22T08:15:32;95588.44;;;3.91;70.88
29247;BME280;16272;48.188;9.964;2023-02-22T08:17:59;95593.34;;;4.07;71.29
29247;BME280;16272;48.188;9.964;2023-02-22T08:20:26;95584.91;;;4.14;70.73
29247;BME280;16272;48.188;9.964;2023-02-22T08:22:52;95585.16;;;4.56;70.27
29247;BME280;16272;48.188;9.964;2023-02-22T08:25:19;95583.06;;;5.49;66.78
29247;BME280;16272;48.188;9.964;2023-02-22T08:27:46;95580.94;;;5.43;66.95
29247;BME280;16272;48.188;9.964;2023-02-22T08:30:22;95577.94;;;5.36;67.80
29247;BME280;16272;48.188;9.964;2023-02-22T08:32:48;95585.97;;;5.02;68.35
29247;BME280;16272;48.188;9.964;2023-02-22T08:35:15;95573.22;;;6.04;66.24
29247;BME280;16272;48.188;9.964;2023-02-22T08:37:43;95568.47;;;5.98;65.60
29247;BME280;16272;48.188;9.964;2023-02-22T08:40:09;95575.28;;;5.15;69.95
29247;BME280;16272;48.188;9.964;2023-02-22T08:42:34;95577.38;;;5.32;69.92
29247;BME280;16272;48.188;9.964;2023-02-22T08:45:06;95573.63;;;5.46;68.60
29247;BME280;16272;48.188;9.964;2023-02-22T08:47:32;95578.81;;;5.69;68.03
29247;BME280;16272;48.188;9.964;2023-02-22T08:49:58;95567.81;;;5.85;69.65
29247;BME280;16272;48.188;9.964;2023-02-22T08:52:25;95572.50;;;5.81;70.15
29247;BME280;16272;48.188;9.964;2023-02-22T08:54:51;95565.34;;;6.35;69.10
29247;BME280;16272;48.188;9.964;2023-02-22T08:57:19;95567.34;;;6.43;68.04
29247;BME280;16272;48.188;9.964;2023-02-22T08:59:44;95565.09;;;6.38;68.28
29247;BME280;16272;48.188;9.964;2023-02-22T09:02:14;95567.81;;;6.58;67.81
29247;BME280;16272;48.188;9.964;2023-02-22T09:04:40;95558.78;;;6.60;66.17
29247;BME280;16272;48.188;9.964;2023-02-22T09:07:05;95556.59;;;6.66;65.09
29247;BME280;16272;48.188;9.964;2023-02-22T09:09:31;95556.50;;;6.36;66.59
29247;BME280;16272;48.188;9.964;2023-02-22T09:11:56;95561.47;;;6.09;69.26
29247;BME280;16272;48.188;9.964;2023-02-22T09:14:23;95558.06;;;6.49;67.47
29247;BME280;16272;48.188;9.964;2023-02-22T09:16:49;95559.72;;;6.19;69.14
29247;BME280;16272;48.188;9.964;2023-02-22T09:19:14;95555.78;;;7.35;67.03
29247;BME280;16272;48.188;9.964;2023-02-22T09:21:39;95551.75;;;7.31;68.03
29247;BME280;16272;48.188;9.964;2023-02-22T09:24:06;95557.56;;;7.15;67.08
29247;BME280;16272;48.188;9.964;2023-02-22T09:26:35;95544.94;;;7.67;64.99
29247;BME280;16272;48.188;9.964;2023-02-22T09:29:06;95559.66;;;7.99;64.68
29247;BME280;16272;48.188;9.964;2023-02-22T09:31:39;95544.16;;;8.24;64.64
29247;BME280;16272;48.188;9.964;2023-02-22T09:34:06;95545.16;;;8.03;65.02
29247;BME280;16272;48.188;9.964;2023-02-22T09:36:43;95540.69;;;8.71;63.18
29247;BME280;16272;48.188;9.964;2023-02-22T09:39:11;95537.03;;;8.24;64.89
29247;BME280;16272;48.188;9.964;2023-02-22T09:44:54;95534.38;;;8.44;65.36
29247;BME280;16272;48.188;9.964;2023-02-22T09:47:33;95539.47;;;7.88;64.26
29247;BME280;16272;48.188;9.964;2023-02-22T09:50:06;95529.00;;;9.37;63.01
29247;BME280;16272;48.188;9.964;2023-02-22T09:52:53;95527.31;;;8.25;63.87
29247;BME280;16272;48.188;9.964;2023-02-22T09:55:34;95526.94;;;9.49;62.46
29247;BME280;16272;48.188;9.964;2023-02-22T09:58:06;95526.94;;;8.85;63.60
29247;BME280;16272;48.188;9.964;2023-02-22T10:00:38;95523.16;;;9.15;61.54
29247;BME280;16272;48.188;9.964;2023-02-22T10:06:09;95531.38;;;9.12;64.54
29247;BME280;16272;48.188;9.964;2023-02-22T10:08:36;95521.09;;;9.09;62.18
29247;BME280;16272;48.188;9.964;2023-02-22T10:17:10;95516.31;;;9.85;58.73
29247;BME280;16272;48.188;9.964;2023-02-22T10:19:56;95504.59;;;10.14;61.28
29247;BME280;16272;48.188;9.964;2023-02-22T10:22:37;95496.72;;;10.30;60.67
29247;BME280;16272;48.188;9.964;2023-02-22T10:25:14;95504.53;;;10.05;59.89
29247;BME280;16272;48.188;9.964;2023-02-22T10:30:50;95511.16;;;9.83;61.64
29247;BME280;16272;48.188;9.964;2023-02-22T10:33:23;95504.06;;;10.36;59.81
29247;BME280;16272;48.188;9.964;2023-02-22T10:35:52;95503.78;;;10.21;59.65
29247;BME280;16272;48.188;9.964;2023-02-22T10:38:19;95502.09;;;10.73;57.42
29247;BME280;16272;48.188;9.964;2023-02-22T10:43:32;95493.97;;;10.74;58.62
29247;BME280;16272;48.188;9.964;2023-02-22T10:46:01;95494.47;;;11.53;57.19
29247;BME280;16272;48.188;9.964;2023-02-22T10:48:30;95494.78;;;11.34;58.61
29247;BME280;16272;48.188;9.964;2023-02-22T10:50:59;95501.09;;;11.41;57.19
29247;BME280;16272;48.188;9.964;2023-02-22T10:53:26;95492.66;;;11.62;57.18
29247;BME280;16272;48.188;9.964;2023-02-22T10:56:12;95491.19;;;12.01;56.82
29247;BME280;16272;48.188;9.964;2023-02-22T10:58:48;95493.97;;;11.42;56.30
29247;BME280;16272;48.188;9.964;2023-02-22T11:01:26;95489.50;;;10.83;58.09
29247;BME280;16272;48.188;9.964;2023-02-22T11:03:56;95489.84;;;10.88;58.24
29247;BME280;16272;48.188;9.964;2023-02-22T11:06:22;95490.13;;;10.69;58.09
29247;BME280;16272;48.188;9.964;2023-02-22T11:08:47;95483.47;;;11.24;59.15
29247;BME280;16272;48.188;9.964;2023-02-22T11:11:25;95476.91;;;10.85;58.71
29247;BME280;16272;48.188;9.964;2023-02-22T11:13:56;95466.59;;;11.99;56.78
29247;BME280;16272;48.188;9.964;2023-02-22T11:19:07;95463.53;;;12.10;56.44
29247;BME280;16272;48.188;9.964;2023-02-22T11:21:33;95457.81;;;12.85;55.19
29247;BME280;16272;48.188;9.964;2023-02-22T11:24:05;95458.72;;;13.01;55.37
29247;BME280;16272;48.188;9.964;2023-02-22T11:26:45;95452.19;;;13.03;54.14
29247;BME280;16272;48.188;9.964;2023-02-22T11:29:34;95451.28;;;11.76;56.17
29247;BME280;16272;48.188;9.964;2023-02-22T11:32:12;95444.75;;;11.78;56.24
29247;BME280;16272;48.188;9.964;2023-02-22T11:34:40;95440.72;;;12.72;53.35
29247;BME280;16272;48.188;9.964;2023-02-22T11:39:47;95432.38;;;13.29;53.43
29247;BME280;16272;48.188;9.964;2023-02-22T11:42:24;95423.75;;;13.73;52.90
29247;BME280;16272;48.188;9.964;2023-02-22T11:45:10;95421.63;;;14.37;49.03
29247;BME280;16272;48.188;9.964;2023-02-22T11:48:17;95415.13;;;14.01;48.35
29247;BME280;16272;48.188;9.964;2023-02-22T11:57:17;95414.41;;;12.68;52.13
29247;BME280;16272;48.188;9.964;2023-02-22T12:08:24;95388.81;;;14.28;51.11
29247;BME280;16272;48.188;9.964;2023-02-22T12:11:10;95388.53;;;13.93;50.46
29247;BME280;16272;48.188;9.964;2023-02-22T12:13:53;95394.31;;;13.44;49.69
29247;BME280;16272;48.188;9.964;2023-02-22T12:16:47;95393.81;;;13.17;50.66
29247;BME280;16272;48.188;9.964;2023-02-22T12:19:40;95386.66;;;13.17;52.08
29247;BME280;16272;48.188;9.964;2023-02-22T12:22:15;95379.50;;;13.56;50.32
29247;BME280;16272;48.188;9.964;2023-02-22T12:24:47;95380.50;;;13.93;49.38
29247;BME280;16272;48.188;9.964;2023-02-22T12:27:40;95373.84;;;13.74;50.05
29247;BME280;16272;48.188;9.964;2023-02-22T12:30:21;95376.81;;;13.18;50.61
29247;BME280;16272;48.188;9.964;2023-02-22T12:32:58;95373.41;;;12.78;51.56
29247;BME280;16272;48.188;9.964;2023-02-22T12:35:29;95371.22;;;12.81;51.49
29247;BME280;16272;48.188;9.964;2023-02-22T12:38:12;95369.44;;;12.74;51.09
29247;BME280;16272;48.188;9.964;2023-02-22T12:40:59;95363.81;;;13.61;50.55
29247;BME280;16272;48.188;9.964;2023-02-22T12:43:38;95373.84;;;13.13;50.56
29247;BME280;16272;48.188;9.964;2023-02-22T12:46:36;95360.44;;;13.44;49.93
29247;BME280;16272;48.188;9.964;2023-02-22T12:49:16;95365.91;;;13.04;50.52
29247;BME280;16272;48.188;9.964;2023-02-22T12:52:08;95360.56;;;13.51;50.09
29247;BME280;16272;48.188;9.964;2023-02-22T12:57:15;95356.78;;;13.22;52.42
29247;BME280;16272;48.188;9.964;2023-02-22T12:59:48;95358.16;;;13.56;49.33
29247;BME280;16272;48.188;9.964;2023-02-22T13:02:31;95358.84;;;13.58;51.82
29247;BME280;16272;48.188;9.964;2023-02-22T13:05:00;95346.16;;;14.05;50.24
29247;BME280;16272;48.188;9.964;2023-02-22T13:07:43;95344.81;;;14.09;50.06
29247;BME280;16272;48.188;9.964;2023-02-22T13:10:27;95346.34;;;13.73;49.80
29247;BME280;16272;48.188;9.964;2023-02-22T13:13:17;95350.47;;;13.61;49.79
29247;BME280;16272;48.188;9.964;2023-02-22T13:18:44;95343.19;;;13.55;51.92
29247;BME280;16272;48.188;9.964;2023-02-22T13:21:30;95336.41;;;13.82;49.94
29247;BME280;16272;48.188;9.964;2023-02-22T13:26:47;95335.84;;;13.72;50.25
29247;BME280;16272;48.188;9.964;2023-02-22T13:29:23;95332.34;;;13.71;50.82
29247;BME280;16272;48.188;9.964;2023-02-22T13:37:52;95320.00;;;15.24;48.01
29247;BME280;16272;48.188;9.964;2023-02-22T13:48:20;95322.94;;;14.86;49.30
29247;BME280;16272;48.188;9.964;2023-02-22T13:53:57;95319.72;;;15.41;46.46
29247;BME280;16272;48.188;9.964;2023-02-22T13:56:24;95320.53;;;15.35;46.66
29247;BME280;16272;48.188;9.964;2023-02-22T13:58:53;95318.59;;;14.85;47.80
29247;BME280;16272;48.188;9.964;2023-02-22T14:01:43;95316.91;;;14.99;50.44
29247;BME280;16272;48.188;9.964;2023-02-22T14:04:34;95320.00;;;15.03;46.63
29247;BME280;16272;48.188;9.964;2023-02-22T14:09:57;95316.59;;;14.87;49.92
29247;BME280;16272;48.188;9.964;2023-02-22T14:15:20;95307.13;;;14.70;47.18
29247;BME280;16272;48.188;9.964;2023-02-22T14:17:48;95314.75;;;14.37;48.69
29247;BME280;16272;48.188;9.964;2023-02-22T14:20:48;95310.44;;;14.72;47.21
29247;BME280;16272;48.188;9.964;2023-02-22T14:23:26;95302.13;;;15.25;47.84
29247;BME280;16272;48.188;9.964;2023-02-22T14:25:53;95300.81;;;15.42;46.79
29247;BME280;16272;48.188;9.964;2023-02-22T14:28:36;95298.13;;;15.71;47.45
29247;BME280;16272;48.188;9.964;2023-02-22T14:31:11;95305.22;;;15.29;48.36
29247;BME280;16272;48.188;9.964;2023-02-22T14:33:58;95303.28;;;14.58;47.93
29247;BME280;16272;48.188;9.964;2023-02-22T14:36:33;95303.72;;;14.76;49.13
29247;BME280;16272;48.188;9.964;2023-02-22T14:39:06;95303.97;;;14.45;48.81
29247;BME280;16272;48.188;9.964;2023-02-22T14:41:36;95303.28;;;14.58;47.78
29247;BME280;16272;48.188;9.964;2023-02-22T14:44:07;95300.28;;;14.82;47.75
29247;BME280;16272;48.188;9.964;2023-02-22T14:46:39;95297.44;;;14.69;47.53
29247;BME280;16272;48.188;9.964;2023-02-22T14:49:08;95296.38;;;14.48;49.06
29247;BME280;16272;48.188;9.964;2023-02-22T14:51:41;95300.75;;;14.20;49.90
29247;BME280;16272;48.188;9.964;2023-02-22T14:54:18;95307.25;;;13.95;49.33
29247;BME280;16272;48.188;9.964;2023-02-22T14:56:58;95306.03;;;13.98;50.37
29247;BME280;16272;48.188;9.964;2023-02-22T14:59:45;95312.19;;;13.54;50.00